createdAt,value
2022-10-07T00:01:10.563Z,9.55
2022-10-07T00:03:36.430Z,9.69
2022-10-07T00:06:11.338Z,9.46
2022-10-07T00:08:38.394Z,9.46
2022-10-07T00:11:13.078Z,9.44
2022-10-07T00:13:40.037Z,9.42
2022-10-07T00:16:08.942Z,9.39
2022-10-07T00:18:36.734Z,9.42
2022-10-07T00:21:04.496Z,9.51
2022-10-07T00:23:30.421Z,9.45
2022-10-07T00:26:00.691Z,9.42
2022-10-07T00:28:27.134Z,9.28
2022-10-07T00:31:00.103Z,9.38
2022-10-07T00:33:29.367Z,9.25
2022-10-07T00:35:55.093Z,9.28
2022-10-07T00:38:20.891Z,9.35
2022-10-07T00:40:46.760Z,9.06
2022-10-07T00:43:25.557Z,9.14
2022-10-07T00:45:54.397Z,9.13
2022-10-07T00:48:25.731Z,9.28
2022-10-07T00:50:53.179Z,9.35
2022-10-07T00:53:20.790Z,9.21
2022-10-07T00:55:46.578Z,9.08
2022-10-07T00:58:12.499Z,9.15
2022-10-07T01:00:38.964Z,9.04
2022-10-07T01:03:05.126Z,9.15
2022-10-07T01:05:31.210Z,8.98
2022-10-07T01:07:59.291Z,9.10
2022-10-07T01:10:36.626Z,9.01
2022-10-07T01:13:09.842Z,9.02
2022-10-07T01:15:56.603Z,8.87
2022-10-07T01:18:45.025Z,8.98
2022-10-07T01:21:39.945Z,8.83
2022-10-07T01:24:31.377Z,8.92
2022-10-07T01:27:05.403Z,8.99
2022-10-07T01:29:31.162Z,8.96
2022-10-07T01:32:11.931Z,8.80
2022-10-07T01:34:39.937Z,8.83
2022-10-07T01:37:11.062Z,8.93
2022-10-07T01:39:45.858Z,8.87
2022-10-07T01:42:11.725Z,8.83
2022-10-07T01:44:39.048Z,8.81
2022-10-07T01:47:05.959Z,8.83
2022-10-07T01:49:31.759Z,8.91
2022-10-07T01:52:12.249Z,8.95
2022-10-07T01:54:57.382Z,8.87
2022-10-07T01:57:35.055Z,8.90
2022-10-07T02:00:12.068Z,8.82
2022-10-07T02:03:01.735Z,8.84
2022-10-07T02:05:42.562Z,8.78
2022-10-07T02:08:35.897Z,8.72
2022-10-07T02:11:17.416Z,8.77
2022-10-07T02:13:57.613Z,8.66
2022-10-07T02:16:49.010Z,8.78
2022-10-07T02:19:23.288Z,8.88
2022-10-07T02:21:51.571Z,8.72
2022-10-07T02:24:21.087Z,8.81
2022-10-07T02:26:50.442Z,8.75
2022-10-07T02:29:19.165Z,8.67
2022-10-07T02:31:47.727Z,8.71
2022-10-07T02:34:20.158Z,8.69
2022-10-07T02:37:10.825Z,8.61
2022-10-07T02:39:36.809Z,8.60
2022-10-07T02:42:24.611Z,8.68
2022-10-07T02:45:08.762Z,8.61
2022-10-07T02:47:49.083Z,8.56
2022-10-07T02:50:21.061Z,8.67
2022-10-07T02:52:48.762Z,8.63
2022-10-07T02:55:21.432Z,8.66
2022-10-07T02:57:51.456Z,8.56
2022-10-07T03:00:18.917Z,8.70
2022-10-07T03:02:54.073Z,8.67
2022-10-07T03:05:21.031Z,8.72
2022-10-07T03:07:57.102Z,8.91
2022-10-07T03:10:23.073Z,8.82
2022-10-07T03:12:49.577Z,8.86
2022-10-07T03:15:15.348Z,8.87
2022-10-07T03:17:41.455Z,8.75
2022-10-07T03:20:08.478Z,8.75
2022-10-07T03:22:34.773Z,8.77
2022-10-07T03:25:00.531Z,8.68
2022-10-07T03:27:26.511Z,8.68
2022-10-07T03:29:53.525Z,8.57
2022-10-07T03:32:19.319Z,8.54
2022-10-07T03:34:45.103Z,8.52
2022-10-07T03:37:10.879Z,8.61
2022-10-07T03:39:36.753Z,8.55
2022-10-07T03:42:02.548Z,8.56
2022-10-07T03:44:28.309Z,8.46
2022-10-07T03:46:54.108Z,8.55
2022-10-07T03:49:20.295Z,8.35
2022-10-07T03:51:46.891Z,8.46
2022-10-07T03:54:12.736Z,8.51
2022-10-07T03:56:38.587Z,8.49
2022-10-07T03:59:04.330Z,8.59
2022-10-07T04:01:30.755Z,8.62
2022-10-07T04:03:58.376Z,8.61
2022-10-07T04:06:24.161Z,8.68
2022-10-07T04:08:54.772Z,8.79
2022-10-07T04:11:22.355Z,8.69
2022-10-07T04:13:48.127Z,8.66
2022-10-07T04:16:14.090Z,8.69
2022-10-07T04:18:42.874Z,8.61
2022-10-07T04:21:09.677Z,8.70
2022-10-07T04:23:36.505Z,8.65
2022-10-07T04:26:10.655Z,8.77
2022-10-07T04:28:36.488Z,8.77
2022-10-07T04:31:03.822Z,8.83
2022-10-07T04:33:29.700Z,8.88
2022-10-07T04:35:55.460Z,8.86
2022-10-07T04:38:25.231Z,8.97
2022-10-07T04:40:53.391Z,9.12
2022-10-07T04:43:26.532Z,9.04
2022-10-07T04:45:54.298Z,9.07
2022-10-07T04:48:22.827Z,8.90
2022-10-07T04:50:51.110Z,9.02
2022-10-07T04:53:17.258Z,8.99
2022-10-07T04:55:45.818Z,8.98
2022-10-07T04:58:12.136Z,8.96
2022-10-07T05:00:43.527Z,8.98
2022-10-07T05:03:09.912Z,9.00
2022-10-07T05:05:37.687Z,9.03
2022-10-07T05:08:03.446Z,9.06
2022-10-07T05:10:29.176Z,8.98
2022-10-07T05:12:56.158Z,9.04
2022-10-07T05:15:22.813Z,8.89
2022-10-07T05:17:49.504Z,8.91
2022-10-07T05:20:15.361Z,9.04
2022-10-07T05:22:41.090Z,9.10
2022-10-07T05:25:07.194Z,9.03
2022-10-07T05:27:33.036Z,9.10
2022-10-07T05:29:58.841Z,9.06
2022-10-07T05:32:25.146Z,9.08
2022-10-07T05:34:51.456Z,9.03
2022-10-07T05:37:17.262Z,9.03
2022-10-07T05:39:43.071Z,8.99
2022-10-07T05:42:08.863Z,8.98
2022-10-07T05:44:36.967Z,9.04
2022-10-07T05:47:02.890Z,8.99
2022-10-07T05:49:28.635Z,9.09
2022-10-07T05:51:54.393Z,9.08
2022-10-07T05:54:20.121Z,8.99
2022-10-07T05:56:45.885Z,8.93
2022-10-07T05:59:11.883Z,9.01
2022-10-07T06:01:37.671Z,9.11
2022-10-07T06:04:06.096Z,9.01
2022-10-07T06:06:31.918Z,9.10
2022-10-07T06:09:20.564Z,8.97
2022-10-07T06:12:04.634Z,9.12
2022-10-07T06:14:30.523Z,9.11
2022-10-07T06:16:56.368Z,9.09
2022-10-07T06:19:22.223Z,9.27
2022-10-07T06:21:48.671Z,9.14
2022-10-07T06:24:14.546Z,9.11
2022-10-07T06:26:43.575Z,9.10
2022-10-07T06:29:09.919Z,9.08
2022-10-07T06:31:36.095Z,9.23
2022-10-07T06:34:02.140Z,9.19
2022-10-07T06:36:28.153Z,9.15
2022-10-07T06:38:54.871Z,9.33
2022-10-07T06:41:23.283Z,9.47
2022-10-07T06:43:53.844Z,9.45
2022-10-07T06:46:20.021Z,9.50
2022-10-07T06:48:46.346Z,9.51
2022-10-07T06:51:13.717Z,9.55
2022-10-07T06:53:39.458Z,9.62
2022-10-07T06:56:05.769Z,9.78
2022-10-07T06:58:32.369Z,9.79
2022-10-07T07:00:59.075Z,9.77
2022-10-07T07:03:25.755Z,9.76
2022-10-07T07:05:54.623Z,9.80
2022-10-07T07:08:23.546Z,9.85
2022-10-07T07:10:49.341Z,9.97
2022-10-07T07:13:15.465Z,10.01
2022-10-07T07:15:41.481Z,10.05
2022-10-07T07:18:10.185Z,10.12
2022-10-07T07:20:37.678Z,10.01
2022-10-07T07:23:05.614Z,10.00
2022-10-07T07:25:35.155Z,10.05
2022-10-07T07:28:01.308Z,10.11
2022-10-07T07:30:29.797Z,10.09
2022-10-07T07:32:55.821Z,10.14
2022-10-07T07:35:22.708Z,10.14
2022-10-07T07:37:49.680Z,10.18
2022-10-07T07:40:17.000Z,10.03
2022-10-07T07:42:45.178Z,10.22
2022-10-07T07:45:11.447Z,10.20
2022-10-07T07:47:37.265Z,10.42
2022-10-07T07:50:04.883Z,10.53
2022-10-07T07:52:31.415Z,10.52
2022-10-07T07:54:58.425Z,10.51
2022-10-07T07:57:29.000Z,10.55
2022-10-07T07:59:55.231Z,10.57
2022-10-07T08:02:22.679Z,10.67
2022-10-07T08:04:49.404Z,10.47
2022-10-07T08:07:15.850Z,10.38
2022-10-07T08:09:42.131Z,10.54
2022-10-07T08:12:08.027Z,10.63
2022-10-07T08:14:33.907Z,10.57
2022-10-07T08:17:00.282Z,10.70
2022-10-07T08:19:28.787Z,10.71
2022-10-07T08:21:55.515Z,10.79
2022-10-07T08:24:24.152Z,10.83
2022-10-07T08:26:49.980Z,10.82
2022-10-07T08:29:16.163Z,10.92
2022-10-07T08:31:42.263Z,11.07
2022-10-07T08:34:10.253Z,11.08
2022-10-07T08:36:36.113Z,11.12
2022-10-07T08:39:03.911Z,11.16
2022-10-07T08:42:03.312Z,11.32
2022-10-07T08:44:43.714Z,11.37
2022-10-07T08:47:29.852Z,11.59
2022-10-07T08:50:21.260Z,11.62
2022-10-07T08:52:56.139Z,11.72
2022-10-07T08:55:55.724Z,11.91
2022-10-07T08:58:40.235Z,11.97
2022-10-07T09:01:43.658Z,12.01
2022-10-07T09:04:36.507Z,12.17
2022-10-07T09:07:08.650Z,12.01
2022-10-07T09:09:38.197Z,12.07
2022-10-07T09:12:11.233Z,12.19
2022-10-07T09:14:39.439Z,12.17
2022-10-07T09:17:37.392Z,12.21
2022-10-07T09:20:28.106Z,12.53
2022-10-07T09:22:56.775Z,12.40
2022-10-07T09:25:28.166Z,12.52
2022-10-07T09:27:54.523Z,12.65
2022-10-07T09:30:22.216Z,12.58
2022-10-07T09:32:53.527Z,12.53
2022-10-07T09:35:24.730Z,12.93
2022-10-07T09:38:07.425Z,13.12
2022-10-07T09:41:00.485Z,13.64
2022-10-07T09:43:27.676Z,14.05
2022-10-07T09:45:55.518Z,14.90
2022-10-07T09:48:26.631Z,15.42
2022-10-07T09:51:12.267Z,16.15
2022-10-07T09:53:54.423Z,17.13
2022-10-07T09:56:34.705Z,17.88
2022-10-07T09:59:31.873Z,18.01
2022-10-07T10:02:01.137Z,18.29
2022-10-07T10:04:32.680Z,18.40
2022-10-07T10:07:05.515Z,18.76
2022-10-07T10:09:33.288Z,19.45
2022-10-07T10:12:11.689Z,19.82
2022-10-07T10:14:46.327Z,19.77
2022-10-07T10:17:25.973Z,20.48
2022-10-07T10:19:51.853Z,20.46
2022-10-07T10:22:30.566Z,20.83
2022-10-07T10:25:15.261Z,21.38
2022-10-07T10:28:20.152Z,21.34
2022-10-07T10:30:57.129Z,21.28
2022-10-07T10:33:32.130Z,20.43
2022-10-07T10:36:14.402Z,20.65
2022-10-07T10:38:44.918Z,21.40
2022-10-07T10:41:32.108Z,21.84
2022-10-07T10:44:09.708Z,22.10
2022-10-07T10:47:03.258Z,22.01
2022-10-07T10:49:55.823Z,21.62
2022-10-07T10:52:27.933Z,22.36
2022-10-07T10:55:06.849Z,22.11
2022-10-07T10:57:47.616Z,22.59
2022-10-07T11:00:21.274Z,22.61
2022-10-07T11:03:00.310Z,23.51
2022-10-07T11:05:36.471Z,23.77
2022-10-07T11:08:11.149Z,23.15
2022-10-07T11:10:41.190Z,24.08
2022-10-07T11:13:12.676Z,25.03
2022-10-07T11:15:50.739Z,25.89
2022-10-07T11:18:32.033Z,26.67
2022-10-07T11:20:59.905Z,26.19
2022-10-07T11:23:46.063Z,25.30
2022-10-07T11:26:34.860Z,27.14
2022-10-07T11:29:23.220Z,27.75
2022-10-07T11:32:02.263Z,27.82
2022-10-07T11:34:40.995Z,27.89
2022-10-07T11:37:34.929Z,29.18
2022-10-07T11:40:06.846Z,29.27
2022-10-07T11:42:42.016Z,29.06
2022-10-07T11:45:19.546Z,29.30
2022-10-07T11:48:08.054Z,29.49
2022-10-07T11:50:46.467Z,29.08
2022-10-07T11:53:20.993Z,27.48
2022-10-07T11:55:51.580Z,29.25
2022-10-07T11:58:31.511Z,29.40
2022-10-07T12:01:24.994Z,31.30
2022-10-07T12:04:28.994Z,31.16
2022-10-07T12:07:35.478Z,31.66
2022-10-07T12:10:01.202Z,31.19
2022-10-07T12:12:42.139Z,28.91
2022-10-07T12:15:28.220Z,30.77
2022-10-07T12:18:02.989Z,31.99
2022-10-07T12:20:44.449Z,31.97
2022-10-07T12:23:16.170Z,32.74
2022-10-07T12:25:58.219Z,33.16
2022-10-07T12:28:29.860Z,33.57
2022-10-07T12:31:04.527Z,31.46
2022-10-07T12:33:42.544Z,30.98
2022-10-07T12:36:23.337Z,32.04
2022-10-07T12:39:11.870Z,31.99
2022-10-07T12:41:42.289Z,34.20
2022-10-07T12:44:14.087Z,32.55
2022-10-07T12:46:39.758Z,31.07
2022-10-07T12:49:29.649Z,32.13
2022-10-07T12:52:03.141Z,32.88
2022-10-07T12:54:43.025Z,31.76
2022-10-07T12:57:17.485Z,32.76
2022-10-07T12:59:54.591Z,30.74
2022-10-07T13:02:50.976Z,30.81
2022-10-07T13:05:35.154Z,26.97
2022-10-07T13:08:19.708Z,28.56
2022-10-07T13:11:03.788Z,26.90
2022-10-07T13:14:00.680Z,27.73
2022-10-07T13:16:36.121Z,27.90
2022-10-07T13:19:06.287Z,27.75
2022-10-07T13:21:36.378Z,27.55
2022-10-07T13:24:02.971Z,25.82
2022-10-07T13:26:29.172Z,25.73
2022-10-07T13:28:56.822Z,25.23
2022-10-07T13:31:28.068Z,25.17
2022-10-07T13:33:55.637Z,24.26
2022-10-07T13:36:27.262Z,22.93
2022-10-07T13:39:31.642Z,22.56
2022-10-07T13:41:59.153Z,22.32
2022-10-07T13:44:31.750Z,21.52
2022-10-07T13:46:59.329Z,21.85
2022-10-07T13:49:29.273Z,22.04
2022-10-07T13:51:57.977Z,21.14
2022-10-07T13:54:27.648Z,20.72
2022-10-07T13:56:54.302Z,20.03
2022-10-07T13:59:21.315Z,19.31
2022-10-07T14:01:53.098Z,19.77
2022-10-07T14:04:19.211Z,19.69
2022-10-07T14:06:57.879Z,19.64
2022-10-07T14:09:41.701Z,19.61
2022-10-07T14:12:12.424Z,19.20
2022-10-07T14:14:44.836Z,18.82
2022-10-07T14:17:26.678Z,18.93
2022-10-07T14:19:55.885Z,18.90
2022-10-07T14:22:29.492Z,18.62
2022-10-07T14:24:59.781Z,18.33
2022-10-07T14:27:53.791Z,18.30
2022-10-07T14:30:25.990Z,17.90
2022-10-07T14:33:28.897Z,17.70
2022-10-07T14:36:18.263Z,17.52
2022-10-07T14:38:46.596Z,17.22
2022-10-07T14:41:14.771Z,16.94
2022-10-07T14:43:44.209Z,16.85
2022-10-07T14:46:16.676Z,16.87
2022-10-07T14:48:42.946Z,16.93
2022-10-07T14:51:09.894Z,16.67
2022-10-07T14:53:36.801Z,16.26
2022-10-07T14:56:03.740Z,16.34
2022-10-07T14:58:29.886Z,16.15
2022-10-07T15:00:56.008Z,16.17
2022-10-07T15:03:22.628Z,15.76
2022-10-07T15:05:49.423Z,16.02
2022-10-07T15:08:15.270Z,16.20
2022-10-07T15:10:41.478Z,16.18
2022-10-07T15:13:13.072Z,16.11
2022-10-07T15:15:41.846Z,15.97
2022-10-07T15:18:09.245Z,15.87
2022-10-07T15:20:35.214Z,15.62
2022-10-07T15:23:01.870Z,15.58
2022-10-07T15:25:30.974Z,15.61
2022-10-07T15:27:57.561Z,15.28
2022-10-07T15:30:23.637Z,15.42
2022-10-07T15:32:49.675Z,15.44
2022-10-07T15:35:15.465Z,15.51
2022-10-07T15:37:45.059Z,15.37
2022-10-07T15:40:12.445Z,15.24
2022-10-07T15:42:39.829Z,15.44
2022-10-07T15:45:06.274Z,15.33
2022-10-07T15:47:33.709Z,15.18
2022-10-07T15:49:59.872Z,15.12
2022-10-07T15:52:26.961Z,15.16
2022-10-07T15:54:52.759Z,15.08
2022-10-07T15:57:18.690Z,15.05
2022-10-07T15:59:44.988Z,15.07
2022-10-07T16:02:15.994Z,15.01
2022-10-07T16:04:42.432Z,14.98
2022-10-07T16:07:11.338Z,14.97
2022-10-07T16:09:37.673Z,14.91
2022-10-07T16:12:03.671Z,14.83
2022-10-07T16:14:29.492Z,14.60
2022-10-07T16:16:57.143Z,14.49
2022-10-07T16:19:23.057Z,14.61
2022-10-07T16:21:48.834Z,14.65
2022-10-07T16:24:19.853Z,14.62
2022-10-07T16:26:47.087Z,14.43
2022-10-07T16:29:36.603Z,14.33
2022-10-07T16:32:02.902Z,14.36
2022-10-07T16:34:28.888Z,14.23
2022-10-07T16:36:56.243Z,14.13
2022-10-07T16:39:22.230Z,14.08
2022-10-07T16:41:50.741Z,13.84
2022-10-07T16:44:16.687Z,13.72
2022-10-07T16:46:43.220Z,13.80
2022-10-07T16:49:14.897Z,13.50
2022-10-07T16:51:41.873Z,13.33
2022-10-07T16:54:14.962Z,13.16
2022-10-07T16:56:46.279Z,13.06
2022-10-07T16:59:23.747Z,13.24
2022-10-07T17:01:53.956Z,13.20
2022-10-07T17:04:20.263Z,13.22
2022-10-07T17:06:46.945Z,13.26
2022-10-07T17:09:13.331Z,13.18
2022-10-07T17:11:40.027Z,13.00
2022-10-07T17:14:15.919Z,12.98
2022-10-07T17:16:47.367Z,12.96
2022-10-07T17:19:19.761Z,12.95
2022-10-07T17:21:47.166Z,12.87
2022-10-07T17:24:14.276Z,12.71
2022-10-07T17:26:40.473Z,12.74
2022-10-07T17:29:11.317Z,12.81
2022-10-07T17:31:39.544Z,12.85
2022-10-07T17:34:06.756Z,12.81
2022-10-07T17:36:34.130Z,12.76
2022-10-07T17:39:00.422Z,12.79
2022-10-07T17:41:31.768Z,12.75
2022-10-07T17:44:00.087Z,12.81
2022-10-07T17:46:32.291Z,12.86
2022-10-07T17:49:01.290Z,12.86
2022-10-07T17:51:30.439Z,12.70
2022-10-07T17:54:01.275Z,12.71
2022-10-07T17:56:29.159Z,12.65
2022-10-07T17:58:56.121Z,12.76
2022-10-07T18:01:26.398Z,12.74
2022-10-07T18:03:57.508Z,12.76
2022-10-07T18:06:28.602Z,12.69
2022-10-07T18:08:54.528Z,12.69
2022-10-07T18:11:20.456Z,12.71
2022-10-07T18:14:05.363Z,12.54
2022-10-07T18:16:32.726Z,12.32
2022-10-07T18:18:58.894Z,12.43
2022-10-07T18:21:24.802Z,12.34
2022-10-07T18:23:51.878Z,12.47
2022-10-07T18:26:18.169Z,12.52
2022-10-07T18:28:45.986Z,12.54
2022-10-07T18:31:14.313Z,12.58
2022-10-07T18:33:40.468Z,12.59
2022-10-07T18:36:15.970Z,12.49
2022-10-07T18:38:42.805Z,12.50
2022-10-07T18:41:12.716Z,12.39
2022-10-07T18:43:39.428Z,12.35
2022-10-07T18:46:09.594Z,12.42
2022-10-07T18:48:38.144Z,12.45
2022-10-07T18:51:05.332Z,12.35
2022-10-07T18:53:34.874Z,12.34
2022-10-07T18:56:07.238Z,12.36
2022-10-07T18:58:38.258Z,12.35
2022-10-07T19:01:12.114Z,12.36
2022-10-07T19:03:38.159Z,12.36
2022-10-07T19:06:09.594Z,12.28
2022-10-07T19:08:35.533Z,12.40
2022-10-07T19:11:06.509Z,12.49
2022-10-07T19:13:53.049Z,12.39
2022-10-07T19:16:21.887Z,12.24
2022-10-07T19:18:50.574Z,12.19
2022-10-07T19:21:20.010Z,12.09
2022-10-07T19:23:47.762Z,12.12
2022-10-07T19:26:18.976Z,12.08
2022-10-07T19:28:47.268Z,12.10
2022-10-07T19:31:17.612Z,12.02
2022-10-07T19:33:45.475Z,12.12
2022-10-07T19:36:13.149Z,12.01
2022-10-07T19:38:43.770Z,12.08
2022-10-07T19:41:12.745Z,11.90
2022-10-07T19:43:40.078Z,11.87
2022-10-07T19:46:06.776Z,11.98
2022-10-07T19:48:33.368Z,12.18
2022-10-07T19:51:01.298Z,12.21
2022-10-07T19:53:33.152Z,12.07
2022-10-07T19:56:04.212Z,12.10
2022-10-07T19:58:33.538Z,12.15
2022-10-07T20:01:07.628Z,12.02
2022-10-07T20:03:34.285Z,11.96
2022-10-07T20:06:04.604Z,11.97
2022-10-07T20:08:35.861Z,11.91
2022-10-07T20:11:03.063Z,11.91
2022-10-07T20:13:32.038Z,11.84
2022-10-07T20:16:06.360Z,11.78
2022-10-07T20:18:33.539Z,11.86
2022-10-07T20:21:09.776Z,11.70
2022-10-07T20:23:40.987Z,11.59
2022-10-07T20:26:09.489Z,11.72
2022-10-07T20:28:38.627Z,11.80
2022-10-07T20:31:06.750Z,11.47
2022-10-07T20:33:46.938Z,11.51
2022-10-07T20:36:15.275Z,11.60
2022-10-07T20:39:00.233Z,11.50
2022-10-07T20:41:45.157Z,11.55
2022-10-07T20:44:13.058Z,11.50
2022-10-07T20:46:38.912Z,11.45
2022-10-07T20:49:22.068Z,11.48
2022-10-07T20:51:49.259Z,11.40
2022-10-07T20:54:16.658Z,11.32
2022-10-07T20:56:42.741Z,11.30
2022-10-07T20:59:09.630Z,11.35
2022-10-07T21:01:39.737Z,11.21
2022-10-07T21:04:06.803Z,11.07
2022-10-07T21:06:32.821Z,11.10
2022-10-07T21:08:58.802Z,11.17
2022-10-07T21:11:26.103Z,11.20
2022-10-07T21:13:55.472Z,11.07
2022-10-07T21:16:23.430Z,11.01
2022-10-07T21:18:50.181Z,11.09
2022-10-07T21:21:17.196Z,11.03
2022-10-07T21:23:46.629Z,11.17
2022-10-07T21:26:12.834Z,11.04
2022-10-07T21:28:39.437Z,11.07
2022-10-07T21:31:10.167Z,10.90
2022-10-07T21:33:39.030Z,11.07
2022-10-07T21:36:09.776Z,11.10
2022-10-07T21:38:36.070Z,11.15
2022-10-07T21:41:11.348Z,11.15
2022-10-07T21:43:37.991Z,10.98
2022-10-07T21:46:03.857Z,10.98
2022-10-07T21:48:30.724Z,10.78
2022-10-07T21:50:58.215Z,10.80
2022-10-07T21:53:25.429Z,10.85
2022-10-07T21:55:51.677Z,10.65
2022-10-07T21:58:19.446Z,10.68
2022-10-07T22:00:45.972Z,10.65
2022-10-07T22:03:12.264Z,10.80
2022-10-07T22:05:39.240Z,10.86
2022-10-07T22:08:25.379Z,10.72
2022-10-07T22:11:09.714Z,10.53
2022-10-07T22:13:41.087Z,10.67
2022-10-07T22:16:14.023Z,10.59
2022-10-07T22:18:43.120Z,10.48
2022-10-07T22:21:14.840Z,10.50
2022-10-07T22:23:41.716Z,10.68
2022-10-07T22:26:13.522Z,10.69
2022-10-07T22:28:40.142Z,10.64
2022-10-07T22:31:08.243Z,10.62
2022-10-07T22:33:36.558Z,10.47
2022-10-07T22:36:07.357Z,10.43
2022-10-07T22:38:34.379Z,10.57
2022-10-07T22:41:04.673Z,10.59
2022-10-07T22:43:31.430Z,10.55
2022-10-07T22:45:58.303Z,10.41
2022-10-07T22:48:25.889Z,10.39
2022-10-07T22:50:52.363Z,10.36
2022-10-07T22:53:19.119Z,10.33
2022-10-07T22:55:45.242Z,10.28
2022-10-07T22:58:11.428Z,10.25
2022-10-07T23:00:37.565Z,10.28
2022-10-07T23:03:07.746Z,10.35
2022-10-07T23:05:39.172Z,10.37
2022-10-07T23:08:05.034Z,10.33
2022-10-07T23:10:30.903Z,10.34
2022-10-07T23:12:56.607Z,10.23
2022-10-07T23:15:22.386Z,10.31
2022-10-07T23:17:48.137Z,10.35
2022-10-07T23:20:13.957Z,10.37
2022-10-07T23:22:42.839Z,10.48
2022-10-07T23:25:08.751Z,10.40
2022-10-07T23:27:35.563Z,10.42
2022-10-07T23:30:01.992Z,10.21
2022-10-07T23:32:27.723Z,10.17
2022-10-07T23:34:53.467Z,10.25
2022-10-07T23:37:19.185Z,10.31
2022-10-07T23:39:44.996Z,10.18
2022-10-07T23:42:10.748Z,10.20
2022-10-07T23:44:37.605Z,10.19
2022-10-07T23:47:03.451Z,10.20
2022-10-07T23:49:29.235Z,10.01
2022-10-07T23:51:54.977Z,10.16
2022-10-07T23:54:20.770Z,10.09
2022-10-07T23:56:46.640Z,10.18
2022-10-07T23:59:13.588Z,10.09
